Time;durP1;ratioP1;P1;durP2;ratioP2;P2;SDS_P1;SDS_P2;PMS_P1;PMS_P2;Temp;Humidity;BMP_temperature;BMP_pressure;BME280_temperature;BME280_humidity;BME280_pressure;Samples;Min_cycle;Max_cycle;Signal;HPM_P1;HPM_P2
2023/12/13 00:01:53;;;;;;;18.00;9.80;;;;;;;7.84;100.00;100315.13;108112;1287;22453;-64
2023/12/13 00:04:19;;;;;;;17.90;10.50;;;;;;;7.80;100.00;100317.93;108104;1287;22003;-64
2023/12/13 00:06:45;;;;;;;17.50;9.60;;;;;;;7.73;100.00;100325.98;108088;1277;21986;-64
2023/12/13 00:09:11;;;;;;;18.60;8.80;;;;;;;7.69;100.00;100319.52;108180;1284;21987;-60
2023/12/13 00:11:36;;;;;;;19.30;8.30;;;;;;;7.70;100.00;100318.48;108178;1287;21995;-60
2023/12/13 00:14:02;;;;;;;20.60;9.10;;;;;;;7.72;100.00;100316.73;108110;1287;21998;-61
2023/12/13 00:16:28;;;;;;;17.00;8.90;;;;;;;7.75;100.00;100319.85;108109;1287;22460;-64
2023/12/13 00:18:53;;;;;;;18.20;9.20;;;;;;;7.76;100.00;100327.02;108068;1287;22000;-64
2023/12/13 00:21:19;;;;;;;13.90;7.70;;;;;;;7.74;100.00;100329.46;108175;1277;22007;-60
2023/12/13 00:23:47;;;;;;;16.50;7.90;;;;;;;7.70;100.00;100328.61;108074;1288;22154;-64
2023/12/13 00:26:17;;;;;;;16.40;9.00;;;;;;;7.67;100.00;100335.95;108174;1281;21988;-65
2023/12/13 00:28:43;;;;;;;12.70;7.40;;;;;;;7.62;100.00;100338.39;108211;1287;22058;-61
2023/12/13 00:31:10;;;;;;;13.30;7.90;;;;;;;7.52;100.00;100337.17;108110;1287;21984;-60
2023/12/13 00:33:36;;;;;;;14.90;7.80;;;;;;;7.45;100.00;100336.13;108125;1286;21992;-61
2023/12/13 00:36:02;;;;;;;14.40;6.90;;;;;;;7.41;100.00;100333.67;108136;1278;21986;-60
2023/12/13 00:38:27;;;;;;;12.80;7.60;;;;;;;7.43;100.00;100328.45;108115;1287;21991;-61
2023/12/13 00:40:53;;;;;;;14.50;7.20;;;;;;;7.45;100.00;100328.63;108134;1279;21981;-64
2023/12/13 00:43:19;;;;;;;11.90;6.80;;;;;;;7.50;100.00;100328.45;108135;1287;21997;-60
2023/12/13 00:45:44;;;;;;;16.30;6.90;;;;;;;7.53;100.00;100330.52;108133;1287;21984;-64
2023/12/13 00:48:10;;;;;;;14.90;7.60;;;;;;;7.56;100.00;100332.96;108099;1281;21996;-64
2023/12/13 00:50:35;;;;;;;15.80;7.90;;;;;;;7.57;100.00;100334.37;108118;1287;22022;-65
2023/12/13 00:53:01;;;;;;;15.60;7.80;;;;;;;7.57;100.00;100333.67;108138;1287;21989;-62
2023/12/13 00:55:27;;;;;;;12.60;7.10;;;;;;;7.59;100.00;100332.80;108123;1281;21992;-60
2023/12/13 00:57:53;;;;;;;12.90;6.80;;;;;;;7.62;100.00;100329.66;108142;1287;22009;-61
2023/12/13 01:00:19;;;;;;;12.90;6.50;;;;;;;7.60;100.00;100327.73;108122;1284;21994;-60
2023/12/13 01:02:45;;;;;;;13.20;7.00;;;;;;;7.58;100.00;100323.02;108110;1278;22040;-61
2023/12/13 01:05:10;;;;;;;13.30;6.90;;;;;;;7.56;100.00;100310.29;108099;1288;21994;-61
2023/12/13 01:07:36;;;;;;;10.60;6.30;;;;;;;7.56;100.00;100309.40;108125;1278;21993;-62
2023/12/13 01:10:01;;;;;;;11.40;6.80;;;;;;;7.55;100.00;100316.39;107907;1284;21987;-61
2023/12/13 01:12:27;;;;;;;13.00;6.60;;;;;;;7.51;100.00;100327.73;108124;1278;22013;-65
2023/12/13 01:14:53;;;;;;;13.60;7.00;;;;;;;7.45;100.00;100334.38;108181;1287;21990;-65
2023/12/13 01:17:19;;;;;;;14.90;6.80;;;;;;;7.39;100.00;100331.58;108090;1283;21993;-64
2023/12/13 01:19:44;;;;;;;12.00;5.80;;;;;;;7.40;100.00;100330.02;108186;1287;21991;-65
2023/12/13 01:22:10;;;;;;;12.90;6.60;;;;;;;7.38;100.00;100332.80;108270;1284;21967;-65
2023/12/13 01:24:36;;;;;;;11.20;6.60;;;;;;;7.35;100.00;100331.42;108258;1287;21992;-61
2023/12/13 01:27:02;;;;;;;12.00;6.90;;;;;;;7.30;100.00;100328.61;108269;1287;21983;-61
2023/12/13 01:29:29;;;;;;;13.20;7.00;;;;;;;7.26;100.00;100324.60;108316;1287;21987;-65
2023/12/13 01:31:55;;;;;;;14.40;7.40;;;;;;;7.27;100.00;100325.84;108241;1278;23233;-65
2023/12/13 01:34:20;;;;;;;16.20;7.00;;;;;;;7.29;100.00;100325.48;108131;1284;22028;-65
2023/12/13 01:36:46;;;;;;;13.00;6.80;;;;;;;7.32;100.00;100321.46;108099;1278;21990;-63
2023/12/13 01:39:13;;;;;;;12.00;7.50;;;;;;;7.35;100.00;100317.44;108100;1284;21993;-62
2023/12/13 01:41:38;;;;;;;14.20;7.40;;;;;;;7.34;100.00;100317.96;108205;1287;21991;-62
2023/12/13 01:44:05;;;;;;;13.50;7.60;;;;;;;7.32;100.00;100321.11;107388;1287;1002379;-61
2023/12/13 01:46:31;;;;;;;11.00;6.00;;;;;;;7.30;100.00;100327.39;108211;1287;21989;-66
2023/12/13 01:48:57;;;;;;;14.30;7.40;;;;;;;7.25;100.00;100341.89;108130;1284;21991;-65
2023/12/13 01:51:22;;;;;;;12.00;7.10;;;;;;;7.18;100.00;100356.70;108001;1285;21984;-65
2023/12/13 01:53:48;;;;;;;13.30;8.50;;;;;;;7.11;100.00;100360.36;108134;1284;21992;-65
2023/12/13 01:56:13;;;;;;;10.50;6.40;;;;;;;7.07;100.00;100359.83;108131;1277;21978;-65
2023/12/13 01:58:39;;;;;;;11.70;6.80;;;;;;;7.03;100.00;100365.77;107969;1284;22014;-62
2023/12/13 02:01:06;;;;;;;12.00;7.00;;;;;;;6.95;100.00;100367.84;108200;1287;23127;-66
2023/12/13 02:03:33;;;;;;;9.90;6.00;;;;;;;6.88;100.00;100365.89;108131;1288;21993;-62
2023/12/13 02:06:00;;;;;;;12.60;6.80;;;;;;;6.81;100.00;100362.73;107861;1288;21980;-61
2023/12/13 02:08:25;;;;;;;11.20;6.20;;;;;;;6.79;100.00;100359.08;108019;1288;22000;-61
2023/12/13 02:10:51;;;;;;;10.00;5.80;;;;;;;6.76;100.00;100358.71;107984;1283;21999;-61
2023/12/13 02:13:17;;;;;;;12.10;6.00;;;;;;;6.72;100.00;100357.83;108072;1276;22030;-65
2023/12/13 02:15:43;;;;;;;11.80;6.30;;;;;;;6.67;100.00;100350.13;107952;1288;21989;-66
2023/12/13 02:18:09;;;;;;;10.30;5.70;;;;;;;6.64;100.00;100345.77;108135;1287;21980;-62
2023/12/13 02:20:35;;;;;;;12.20;7.10;;;;;;;6.65;100.00;100342.45;108127;1286;21994;-65
2023/12/13 02:23:01;;;;;;;12.10;6.40;;;;;;;6.64;100.00;100334.61;108123;1287;21999;-61
2023/12/13 02:25:38;;;;;;;10.10;5.40;;;;;;;6.67;100.00;100332.35;108155;1277;21987;-61
2023/12/13 02:28:07;;;;;;;10.80;5.90;;;;;;;6.73;100.00;100340.56;108134;1287;22000;-65
2023/12/13 02:30:32;;;;;;;10.90;5.60;;;;;;;6.73;100.00;100351.55;107992;1287;21987;-66
2023/12/13 02:32:58;;;;;;;10.80;6.00;;;;;;;6.68;100.00;100359.20;108080;1287;21989;-66
2023/12/13 02:35:23;;;;;;;11.90;5.60;;;;;;;6.58;100.00;100356.91;108123;1287;21987;-66
2023/12/13 02:37:49;;;;;;;12.00;6.20;;;;;;;6.54;100.00;100357.95;107334;1285;1002640;-64
2023/12/13 02:40:17;;;;;;;12.20;6.20;;;;;;;6.59;100.00;100358.32;107349;1287;1002237;-66
2023/12/13 02:42:45;;;;;;;11.60;6.70;;;;;;;6.65;100.00;100357.63;108139;1287;21985;-62
2023/12/13 02:45:13;;;;;;;12.90;6.90;;;;;;;6.72;100.00;100354.16;108120;1287;22001;-67
2023/12/13 02:47:41;;;;;;;12.10;6.20;;;;;;;6.78;100.00;100350.87;108078;1287;21996;-66
2023/12/13 02:50:13;;;;;;;12.10;6.10;;;;;;;6.84;100.00;100348.27;108146;1284;22005;-67
2023/12/13 02:52:39;;;;;;;9.50;5.00;;;;;;;6.88;100.00;100351.77;108080;1278;21997;-67
2023/12/13 02:55:06;;;;;;;11.10;5.60;;;;;;;6.90;100.00;100365.39;108102;1287;22002;-61
2023/12/13 02:57:32;;;;;;;10.10;5.90;;;;;;;6.93;100.00;100376.20;108083;1287;21990;-66
2023/12/13 02:59:57;;;;;;;11.80;6.80;;;;;;;6.89;100.00;100388.58;108118;1283;22025;-61
2023/12/13 03:02:24;;;;;;;10.60;5.00;;;;;;;6.84;100.00;100394.48;108103;1276;23386;-62
2023/12/13 03:04:49;;;;;;;13.40;6.10;;;;;;;6.69;100.00;100398.27;107996;1289;21992;-60
2023/12/13 03:07:15;;;;;;;12.20;5.40;;;;;;;6.62;100.00;100398.95;108103;1277;21990;-61
2023/12/13 03:09:40;;;;;;;8.50;4.80;;;;;;;6.61;100.00;100398.95;108114;1287;21991;-61
2023/12/13 03:12:10;;;;;;;11.40;5.80;;;;;;;6.64;100.00;100389.19;108096;1288;21994;-61
2023/12/13 03:14:35;;;;;;;11.30;5.80;;;;;;;6.66;100.00;100385.02;108121;1287;23078;-60
2023/12/13 03:17:01;;;;;;;11.60;5.10;;;;;;;6.70;100.00;100381.35;108068;1288;21995;-67
2023/12/13 03:19:27;;;;;;;10.20;4.90;;;;;;;6.72;100.00;100382.07;108083;1284;21964;-67
2023/12/13 03:21:52;;;;;;;9.40;5.00;;;;;;;6.74;100.00;100377.89;107355;1288;1002969;-68
2023/12/13 03:24:18;;;;;;;12.60;5.60;;;;;;;6.74;100.00;100379.29;107349;1284;1002270;-68
2023/12/13 03:26:44;;;;;;;11.00;5.90;;;;;;;6.70;100.00;100380.31;108116;1287;22446;-68
2023/12/13 03:29:09;;;;;;;12.40;5.50;;;;;;;6.68;100.00;100381.00;108088;1287;23605;-61
2023/12/13 03:31:35;;;;;;;13.70;6.10;;;;;;;6.62;100.00;100383.60;108101;1288;21998;-61
2023/12/13 03:34:00;;;;;;;9.60;5.00;;;;;;;6.60;100.00;100386.20;108118;1287;21988;-61
2023/12/13 03:36:26;;;;;;;8.80;5.10;;;;;;;6.64;100.00;100388.33;108187;1283;22046;-68
2023/12/13 03:38:52;;;;;;;11.70;5.10;;;;;;;6.69;100.00;100388.15;107378;1281;1002102;-62
2023/12/13 03:41:18;;;;;;;9.60;5.40;;;;;;;6.69;100.00;100389.38;108180;1287;21989;-68
2023/12/13 03:43:43;;;;;;;14.70;5.50;;;;;;;6.66;100.00;100386.92;108178;1278;22007;-67
2023/12/13 03:46:09;;;;;;;10.80;5.30;;;;;;;6.63;100.00;100383.08;108143;1278;21986;-67
2023/12/13 03:48:34;;;;;;;9.60;5.40;;;;;;;6.62;100.00;100386.93;108125;1287;21986;-61
2023/12/13 03:51:01;;;;;;;11.30;6.10;;;;;;;6.64;100.00;100395.98;108091;1288;21998;-67
2023/12/13 03:53:27;;;;;;;9.90;5.50;;;;;;;6.64;100.00;100400.52;108144;1287;21985;-67
2023/12/13 03:55:53;;;;;;;10.00;5.80;;;;;;;6.62;100.00;100406.79;108989;1287;21992;-67
2023/12/13 03:58:18;;;;;;;9.30;5.60;;;;;;;6.61;100.00;100414.98;108135;1278;22001;-62
2023/12/13 04:00:44;;;;;;;9.40;5.80;;;;;;;6.57;100.00;100418.29;108125;1287;22029;-67
2023/12/13 04:03:09;;;;;;;9.10;5.20;;;;;;;6.54;100.00;100421.23;108092;1283;21997;-66
2023/12/13 04:05:35;;;;;;;10.10;5.40;;;;;;;6.55;100.00;100418.09;108102;1284;21992;-67
2023/12/13 04:08:00;;;;;;;10.30;5.60;;;;;;;6.60;100.00;100417.77;108139;1287;21994;-62
2023/12/13 04:10:26;;;;;;;10.20;5.60;;;;;;;6.65;100.00;100422.48;108173;1287;21987;-62
2023/12/13 04:12:52;;;;;;;10.30;5.00;;;;;;;6.66;100.00;100420.76;108211;1287;21991;-67
2023/12/13 04:15:18;;;;;;;8.80;5.20;;;;;;;6.67;100.00;100416.57;108166;1287;21995;-66
2023/12/13 04:17:43;;;;;;;9.60;5.70;;;;;;;6.71;100.00;100413.29;108115;1288;22005;-66
2023/12/13 04:20:10;;;;;;;8.40;4.90;;;;;;;6.75;100.00;100404.23;108104;1288;21992;-62
2023/12/13 04:22:36;;;;;;;10.50;5.00;;;;;;;6.75;100.00;100401.27;108091;1278;22006;-61
2023/12/13 04:25:03;;;;;;;10.10;5.30;;;;;;;6.74;100.00;100399.52;108147;1288;21991;-63
2023/12/13 04:27:29;;;;;;;8.60;5.00;;;;;;;6.77;100.00;100400.74;108187;1287;21986;-61
2023/12/13 04:29:54;;;;;;;9.90;5.00;;;;;;;6.81;100.00;100396.56;108087;1287;21988;-65
2023/12/13 04:32:20;;;;;;;9.00;4.60;;;;;;;6.83;100.00;100396.06;108121;1288;22456;-63
2023/12/13 04:34:45;;;;;;;8.20;4.60;;;;;;;6.84;100.00;100400.77;108118;1284;21996;-66
2023/12/13 04:37:11;;;;;;;8.20;4.20;;;;;;;6.82;100.00;100400.07;108177;1287;21989;-61
2023/12/13 04:39:37;;;;;;;8.40;4.60;;;;;;;6.75;100.00;100403.70;108145;1284;21954;-66
2023/12/13 04:42:03;;;;;;;11.30;4.60;;;;;;;6.77;100.00;100402.65;108134;1287;21989;-61
2023/12/13 04:44:30;;;;;;;10.20;5.50;;;;;;;6.75;100.00;100402.14;108126;1287;22001;-66
2023/12/13 04:46:57;;;;;;;9.80;5.00;;;;;;;6.73;100.00;100401.08;108210;1278;21987;-62
2023/12/13 04:49:22;;;;;;;11.50;5.60;;;;;;;6.71;100.00;100412.07;108145;1281;23035;-66
2023/12/13 04:51:48;;;;;;;8.40;5.10;;;;;;;6.75;100.00;100420.27;108151;1277;22024;-63
2023/12/13 04:54:15;;;;;;;9.20;4.60;;;;;;;6.75;100.00;100422.71;108242;1287;21992;-61
2023/12/13 04:56:40;;;;;;;6.00;3.40;;;;;;;6.66;100.00;100434.19;108296;1282;21987;-66
2023/12/13 04:59:06;;;;;;;7.20;3.80;;;;;;;6.50;99.57;100438.29;107384;1288;1002677;-61
2023/12/13 05:01:32;;;;;;;8.50;4.40;;;;;;;6.33;99.01;100442.37;108107;1284;21990;-61
2023/12/13 05:03:57;;;;;;;8.40;4.30;;;;;;;6.24;99.59;100438.31;108088;1288;22034;-66
2023/12/13 05:06:23;;;;;;;8.40;4.10;;;;;;;6.26;100.00;100432.58;108115;1281;21992;-61
2023/12/13 05:08:48;;;;;;;8.20;4.10;;;;;;;6.31;100.00;100428.08;108118;1288;21977;-61
2023/12/13 05:11:14;;;;;;;6.60;3.60;;;;;;;6.32;100.00;100421.11;108093;1288;21999;-61
2023/12/13 05:13:40;;;;;;;8.30;4.60;;;;;;;6.28;100.00;100418.48;108193;1278;22029;-61
2023/12/13 05:16:06;;;;;;;8.10;4.60;;;;;;;6.23;100.00;100416.70;108163;1284;22002;-65
2023/12/13 05:18:32;;;;;;;8.60;5.20;;;;;;;6.22;100.00;100420.34;108115;1288;22007;-65
2023/12/13 05:20:58;;;;;;;8.30;4.80;;;;;;;6.20;100.00;100425.04;108296;1287;21997;-61
2023/12/13 05:23:25;;;;;;;8.10;4.10;;;;;;;6.17;100.00;100427.29;108236;1287;22042;-63
2023/12/13 05:25:51;;;;;;;7.70;4.30;;;;;;;6.18;100.00;100428.52;108303;1287;21986;-61
2023/12/13 05:28:17;;;;;;;7.50;4.10;;;;;;;6.18;100.00;100429.21;108109;1287;21992;-61
2023/12/13 05:30:42;;;;;;;9.50;4.80;;;;;;;6.17;100.00;100433.73;108170;1288;22023;-64
2023/12/13 05:33:08;;;;;;;7.80;4.30;;;;;;;6.17;100.00;100434.09;108159;1285;22452;-66
2023/12/13 05:35:34;;;;;;;7.70;4.20;;;;;;;6.13;100.00;100435.80;108136;1284;21989;-65
2023/12/13 05:38:00;;;;;;;7.20;3.80;;;;;;;6.06;100.00;100429.30;108118;1288;21994;-65
2023/12/13 05:40:25;;;;;;;6.90;3.70;;;;;;;6.03;100.00;100424.06;108100;1288;21990;-61
2023/12/13 05:42:51;;;;;;;8.60;4.20;;;;;;;6.00;100.00;100415.14;108110;1277;21989;-65
2023/12/13 05:45:17;;;;;;;8.00;4.20;;;;;;;5.93;100.00;100413.52;108113;1287;21968;-63
2023/12/13 05:47:42;;;;;;;6.90;4.00;;;;;;;5.87;100.00;100412.77;108107;1287;21988;-62
2023/12/13 05:50:08;;;;;;;7.80;4.10;;;;;;;5.80;100.00;100421.77;108149;1287;21991;-65
2023/12/13 05:52:34;;;;;;;7.20;4.20;;;;;;;5.77;100.00;100433.40;107396;1287;1003117;-60
2023/12/13 05:54:59;;;;;;;8.20;4.10;;;;;;;5.77;100.00;100442.46;108153;1287;22045;-61
2023/12/13 05:57:25;;;;;;;7.40;3.60;;;;;;;5.84;100.00;100445.83;108123;1278;22002;-61
2023/12/13 05:59:50;;;;;;;6.80;3.80;;;;;;;5.92;100.00;100450.43;108126;1281;21989;-64
2023/12/13 06:02:16;;;;;;;7.40;3.80;;;;;;;5.98;100.00;100447.67;108100;1288;21988;-61
2023/12/13 06:04:42;;;;;;;6.80;4.00;;;;;;;6.01;100.00;100444.41;108117;1287;22094;-65
2023/12/13 06:07:11;;;;;;;6.90;4.20;;;;;;;6.01;100.00;100445.29;108182;1284;21992;-65
2023/12/13 06:09:37;;;;;;;6.50;3.60;;;;;;;5.96;100.00;100447.33;108187;1287;21994;-66
2023/12/13 06:12:03;;;;;;;7.60;4.10;;;;;;;5.91;100.00;100444.31;108133;1283;21992;-65
2023/12/13 06:14:29;;;;;;;11.70;4.60;;;;;;;5.91;100.00;100439.98;108188;1287;21988;-66
2023/12/13 06:16:55;;;;;;;8.50;4.00;;;;;;;5.98;100.00;100448.05;108112;1287;21992;-66
2023/12/13 06:19:21;;;;;;;9.00;4.30;;;;;;;6.08;100.00;100455.98;108153;1287;22080;-61
2023/12/13 06:21:47;;;;;;;9.60;3.80;;;;;;;6.17;100.00;100462.48;108120;1287;21992;-62
2023/12/13 06:24:12;;;;;;;5.80;3.20;;;;;;;6.22;100.00;100463.21;108202;1281;21990;-66
2023/12/13 06:26:38;;;;;;;6.80;4.00;;;;;;;6.23;100.00;100471.06;108186;1287;22492;-63
2023/12/13 06:29:04;;;;;;;5.40;3.40;;;;;;;6.19;100.00;100478.70;108148;1287;23757;-68
2023/12/13 06:31:30;;;;;;;7.30;4.10;;;;;;;6.09;100.00;100481.94;108169;1284;23052;-63
2023/12/13 06:33:56;;;;;;;5.90;3.40;;;;;;;6.01;100.00;100484.48;108290;1287;21990;-62
2023/12/13 06:36:21;;;;;;;7.60;4.10;;;;;;;5.98;100.00;100490.17;108195;1287;22037;-67
2023/12/13 06:38:47;;;;;;;7.50;3.80;;;;;;;5.99;100.00;100490.71;108016;1284;194039;-67
2023/12/13 06:41:13;;;;;;;7.50;4.20;;;;;;;6.05;100.00;100491.33;108114;1285;22004;-67
2023/12/13 06:43:38;;;;;;;9.10;5.40;;;;;;;6.12;100.00;100490.33;108097;1288;21997;-67
2023/12/13 06:46:04;;;;;;;10.80;6.00;;;;;;;6.12;100.00;100491.37;108091;1288;21987;-68
2023/12/13 06:48:30;;;;;;;7.00;4.20;;;;;;;6.07;100.00;100491.69;108063;1275;21987;-63
2023/12/13 06:50:56;;;;;;;8.30;4.80;;;;;;;5.98;100.00;100492.45;108157;1287;21987;-67
2023/12/13 06:53:21;;;;;;;7.50;4.00;;;;;;;5.89;100.00;100488.54;108132;1287;22007;-62
2023/12/13 06:55:47;;;;;;;6.60;3.70;;;;;;;5.82;100.00;100486.22;108118;1287;21989;-67
2023/12/13 06:58:13;;;;;;;7.40;4.30;;;;;;;5.77;100.00;100489.30;108077;1288;22020;-67
2023/12/13 07:00:39;;;;;;;6.60;3.50;;;;;;;5.75;100.00;100491.54;108160;1287;22063;-68
2023/12/13 07:03:04;;;;;;;5.30;2.90;;;;;;;5.78;100.00;100484.95;108109;1278;21985;-67
2023/12/13 07:05:30;;;;;;;5.20;2.90;;;;;;;5.79;100.00;100476.62;108071;1289;21999;-67
2023/12/13 07:07:58;;;;;;;6.00;3.40;;;;;;;5.83;100.00;100470.91;108093;1288;21982;-67
2023/12/13 07:10:26;;;;;;;5.80;3.60;;;;;;;5.85;100.00;100461.34;108125;1287;21989;-63
2023/12/13 07:12:52;;;;;;;5.90;3.20;;;;;;;5.84;100.00;100457.33;108136;1287;22003;-61
2023/12/13 07:15:17;;;;;;;7.10;3.60;;;;;;;5.93;100.00;100458.80;108156;1287;23908;-62
2023/12/13 07:17:43;;;;;;;7.40;4.30;;;;;;;6.08;100.00;100462.06;108154;1288;21994;-63
2023/12/13 07:20:10;;;;;;;12.20;5.00;;;;;;;6.19;100.00;100468.25;108095;1288;21992;-67
2023/12/13 07:22:36;;;;;;;10.20;5.90;;;;;;;6.25;100.00;100472.98;108179;1285;21989;-63
2023/12/13 07:25:03;;;;;;;11.20;5.00;;;;;;;6.25;100.00;100467.23;108076;1288;21985;-67
2023/12/13 07:27:29;;;;;;;10.60;5.60;;;;;;;6.28;100.00;100455.94;108132;1287;22571;-67
2023/12/13 07:29:54;;;;;;;9.60;5.30;;;;;;;6.36;100.00;100453.20;108137;1287;22021;-68
2023/12/13 07:32:20;;;;;;;10.40;5.20;;;;;;;6.47;100.00;100452.40;108160;1284;21996;-62
2023/12/13 07:34:45;;;;;;;8.70;4.50;;;;;;;6.62;100.00;100453.00;108205;1287;21983;-68
2023/12/13 07:37:11;;;;;;;12.00;6.30;;;;;;;6.72;100.00;100455.84;108197;1287;21984;-62
2023/12/13 07:39:38;;;;;;;9.20;4.60;;;;;;;6.71;100.00;100461.75;108137;1287;21989;-65
2023/12/13 07:42:04;;;;;;;8.20;4.50;;;;;;;6.70;100.00;100467.85;108111;1287;21994;-67
2023/12/13 07:44:33;;;;;;;9.90;4.30;;;;;;;6.72;100.00;100467.85;107353;1288;1002961;-67
2023/12/13 07:46:59;;;;;;;8.10;3.90;;;;;;;6.73;100.00;100466.12;108115;1288;21985;-63
2023/12/13 07:49:28;;;;;;;7.60;4.20;;;;;;;6.79;100.00;100456.91;108259;1287;21984;-62
2023/12/13 07:51:55;;;;;;;6.10;3.60;;;;;;;6.89;100.00;100455.04;108174;1287;21983;-63
2023/12/13 07:54:21;;;;;;;6.90;3.80;;;;;;;6.88;100.00;100458.52;108212;1283;22041;-62
2023/12/13 07:56:49;;;;;;;7.10;3.70;;;;;;;6.81;100.00;100460.95;108159;1287;21995;-67
2023/12/13 07:59:15;;;;;;;7.50;4.30;;;;;;;6.81;100.00;100460.42;108179;1286;22008;-62
2023/12/13 08:01:41;;;;;;;8.50;4.60;;;;;;;6.85;100.00;100453.61;108203;1283;21996;-67
2023/12/13 08:04:06;;;;;;;9.40;4.50;;;;;;;6.92;100.00;100449.64;108226;1287;21988;-62
2023/12/13 08:06:33;;;;;;;7.60;4.50;;;;;;;6.99;100.00;100445.66;108166;1278;21986;-63
2023/12/13 08:08:59;;;;;;;7.70;4.30;;;;;;;6.99;100.00;100447.94;108246;1287;22009;-67
2023/12/13 08:11:24;;;;;;;8.00;4.60;;;;;;;6.96;100.00;100451.41;108131;1283;21991;-67
2023/12/13 08:13:50;;;;;;;8.60;5.00;;;;;;;6.92;100.00;100446.85;108112;1287;21988;-68
2023/12/13 08:16:15;;;;;;;7.90;5.00;;;;;;;6.84;100.00;100446.64;108232;1283;21993;-67
2023/12/13 08:18:41;;;;;;;7.90;4.60;;;;;;;6.84;100.00;100443.51;108091;1287;21992;-67
2023/12/13 08:21:09;;;;;;;8.30;5.10;;;;;;;6.93;100.00;100444.92;108147;1281;21997;-68
2023/12/13 08:23:35;;;;;;;8.70;4.50;;;;;;;6.93;100.00;100453.66;108161;1278;21989;-63
2023/12/13 08:26:01;;;;;;;8.60;4.70;;;;;;;6.81;100.00;100451.52;108137;1287;21984;-67
2023/12/13 08:28:26;;;;;;;7.70;4.80;;;;;;;6.77;100.00;100439.46;108137;1281;22040;-67
2023/12/13 08:30:52;;;;;;;8.40;5.20;;;;;;;6.86;100.00;100436.89;108138;1283;22023;-62
2023/12/13 08:33:18;;;;;;;8.10;4.70;;;;;;;6.98;100.00;100429.09;108165;1287;21996;-66
2023/12/13 08:35:43;;;;;;;8.60;5.50;;;;;;;7.06;100.00;100428.06;108198;1287;21986;-62
2023/12/13 08:38:09;;;;;;;8.60;5.40;;;;;;;7.10;100.00;100430.86;108172;1280;21997;-62
2023/12/13 08:40:34;;;;;;;7.80;5.30;;;;;;;7.15;100.00;100432.27;108136;1287;21982;-62
2023/12/13 08:43:03;;;;;;;8.00;4.70;;;;;;;7.15;100.00;100427.38;108158;1286;22064;-61
2023/12/13 08:45:29;;;;;;;8.30;4.70;;;;;;;7.14;100.00;100416.55;108103;1287;22008;-66
2023/12/13 08:47:54;;;;;;;9.60;5.10;;;;;;;7.26;100.00;100413.44;108121;1288;22026;-62
2023/12/13 08:50:20;;;;;;;9.90;5.30;;;;;;;7.45;100.00;100409.98;108137;1285;22024;-61
2023/12/13 08:52:46;;;;;;;9.00;5.30;;;;;;;7.63;100.00;100403.52;108187;1288;22006;-62
2023/12/13 08:55:12;;;;;;;6.70;4.30;;;;;;;7.81;100.00;100397.93;108149;1287;21989;-62
2023/12/13 08:57:40;;;;;;;10.00;4.80;;;;;;;7.88;100.00;100395.13;108136;1283;21989;-61
2023/12/13 09:00:06;;;;;;;9.00;4.30;;;;;;;7.91;100.00;100396.00;108150;1276;21996;-62
2023/12/13 09:02:35;;;;;;;7.80;4.60;;;;;;;7.94;100.00;100392.34;108150;1277;21998;-67
2023/12/13 09:05:00;;;;;;;6.60;4.40;;;;;;;7.99;100.00;100387.09;108133;1287;21989;-61
2023/12/13 09:07:26;;;;;;;9.20;4.90;;;;;;;8.04;100.00;100383.23;108175;1283;21989;-62
2023/12/13 09:09:51;;;;;;;8.00;4.60;;;;;;;8.06;100.00;100383.58;108024;1286;22042;-61
2023/12/13 09:12:17;;;;;;;9.30;5.00;;;;;;;8.03;100.00;100377.98;108215;1278;22108;-66
2023/12/13 09:14:43;;;;;;;10.30;5.90;;;;;;;8.06;100.00;100377.27;108156;1287;21991;-62
2023/12/13 09:17:11;;;;;;;11.10;6.40;;;;;;;8.12;100.00;100379.73;108155;1283;21999;-67
2023/12/13 09:19:37;;;;;;;14.30;7.30;;;;;;;8.12;100.00;100382.52;108138;1278;21988;-65
2023/12/13 09:22:03;;;;;;;12.40;7.30;;;;;;;8.09;100.00;100383.22;108166;1288;21987;-67
2023/12/13 09:24:32;;;;;;;11.40;7.30;;;;;;;8.00;100.00;100389.00;108106;1287;21995;-65
2023/12/13 09:26:58;;;;;;;13.60;8.90;;;;;;;7.87;100.00;100392.52;108111;1278;22000;-68
2023/12/13 09:29:23;;;;;;;15.30;9.50;;;;;;;7.76;100.00;100382.91;108109;1288;23077;-65
2023/12/13 09:31:49;;;;;;;16.30;8.30;;;;;;;7.70;100.00;100372.44;108130;1287;22055;-62
2023/12/13 09:34:15;;;;;;;15.10;8.90;;;;;;;7.75;100.00;100360.39;108138;1287;22042;-61
2023/12/13 09:36:41;;;;;;;14.90;9.30;;;;;;;7.86;100.00;100356.70;108231;1286;22024;-62
2023/12/13 09:39:07;;;;;;;15.00;9.20;;;;;;;7.96;100.00;100351.96;108089;1287;21984;-67
2023/12/13 09:41:43;;;;;;;16.10;9.80;;;;;;;8.02;100.00;100347.77;108129;1280;21988;-63
2023/12/13 09:44:09;;;;;;;16.70;10.50;;;;;;;8.05;100.00;100349.86;108141;1280;23843;-67
2023/12/13 09:46:34;;;;;;;20.00;12.50;;;;;;;8.05;100.00;100353.52;108105;1280;22007;-66
2023/12/13 09:49:00;;;;;;;20.40;13.10;;;;;;;8.01;100.00;100363.14;107963;1287;21989;-65
2023/12/13 09:51:25;;;;;;;24.60;13.50;;;;;;;7.92;100.00;100368.58;108098;1287;21988;-62
2023/12/13 09:53:51;;;;;;;21.20;12.80;;;;;;;7.81;100.00;100363.16;107986;1280;22764;-66
2023/12/13 09:56:19;;;;;;;24.80;14.20;;;;;;;7.75;100.00;100360.04;107998;1280;23647;-62
2023/12/13 09:58:45;;;;;;;25.50;14.50;;;;;;;7.73;100.00;100360.38;108109;1287;21993;-66
2023/12/13 10:01:12;;;;;;;26.20;16.10;;;;;;;7.69;100.00;100363.19;108137;1276;22030;-62
2023/12/13 10:03:39;;;;;;;25.40;15.10;;;;;;;7.66;100.00;100373.48;108127;1281;21991;-66
2023/12/13 10:06:08;;;;;;;27.80;15.50;;;;;;;7.60;100.00;100378.55;108165;1281;22043;-66
2023/12/13 10:08:34;;;;;;;29.60;17.70;;;;;;;7.57;100.00;100373.83;108122;1287;21990;-62
2023/12/13 10:11:04;;;;;;;29.80;16.20;;;;;;;7.53;100.00;100365.45;108135;1283;21996;-62
2023/12/13 10:13:31;;;;;;;35.00;17.70;;;;;;;7.56;100.00;100361.09;108134;1287;22005;-67
2023/12/13 10:16:07;;;;;;;30.10;17.20;;;;;;;7.58;100.00;100353.58;108120;1288;22171;-66
2023/12/13 10:18:34;;;;;;;33.70;18.20;;;;;;;7.64;100.00;100344.67;108102;1285;21986;-66
2023/12/13 10:21:00;;;;;;;32.70;18.40;;;;;;;7.69;100.00;100342.40;108106;1277;21994;-63
2023/12/13 10:23:25;;;;;;;31.60;18.70;;;;;;;7.75;100.00;100341.69;108092;1287;22104;-62
2023/12/13 10:25:52;;;;;;;38.80;20.80;;;;;;;7.79;100.00;100348.49;108095;1288;22010;-66
2023/12/13 10:28:20;;;;;;;39.70;21.00;;;;;;;7.79;100.00;100358.80;108117;1288;22461;-62
2023/12/13 10:30:49;;;;;;;38.60;20.40;;;;;;;7.80;100.00;100356.89;108138;1283;21989;-66
2023/12/13 10:33:15;;;;;;;44.30;24.10;;;;;;;7.81;100.00;100353.39;108766;1281;21994;-65
2023/12/13 10:35:41;;;;;;;40.30;23.30;;;;;;;7.80;100.00;100351.64;108065;1287;21989;-65
2023/12/13 10:38:07;;;;;;;43.10;20.40;;;;;;;7.80;100.00;100349.37;108136;1287;22000;-64
2023/12/13 10:40:35;;;;;;;34.00;19.60;;;;;;;7.84;100.00;100350.24;108059;1287;21991;-64
2023/12/13 10:43:01;;;;;;;32.50;18.60;;;;;;;7.86;100.00;100341.69;108181;1278;21995;-61
2023/12/13 10:45:26;;;;;;;32.50;18.30;;;;;;;7.83;100.00;100337.66;107913;1288;22248;-61
2023/12/13 10:47:55;;;;;;;30.30;17.20;;;;;;;7.80;100.00;100332.25;108111;1288;21989;-64
2023/12/13 10:50:22;;;;;;;28.90;17.20;;;;;;;7.83;100.00;100329.98;108113;1288;21988;-62
2023/12/13 10:52:47;;;;;;;27.90;16.10;;;;;;;7.86;100.00;100329.98;108073;1287;21986;-61
2023/12/13 10:55:14;;;;;;;27.80;16.50;;;;;;;7.89;100.00;100331.19;107983;1287;22169;-61
2023/12/13 10:57:40;;;;;;;32.40;19.60;;;;;;;7.94;100.00;100321.40;108026;1287;21988;-62
2023/12/13 11:00:07;;;;;;;29.90;18.20;;;;;;;8.00;100.00;100319.98;108047;1287;21993;-64
2023/12/13 11:02:43;;;;;;;30.80;16.20;;;;;;;8.06;100.00;100319.43;108147;1277;21989;-66
2023/12/13 11:05:08;;;;;;;29.80;17.00;;;;;;;8.12;100.00;100324.85;108084;1287;23051;-65
2023/12/13 11:07:44;;;;;;;30.80;16.00;;;;;;;8.14;100.00;100320.82;107995;1278;22150;-65